sensor_id;sensor_type;location;lat;lon;timestamp;P1;durP1;ratioP1;P2;durP2;ratioP2
20423;SDS011;10371;49.042;8.002;2023-08-06T00:00:45;3.67;;;3.17;;
20423;SDS011;10371;49.042;8.002;2023-08-06T00:01:45;3.00;;;2.80;;
20423;SDS011;10371;49.042;8.002;2023-08-06T00:02:45;3.33;;;3.03;;
20423;SDS011;10371;49.042;8.002;2023-08-06T00:03:46;3.30;;;3.00;;
20423;SDS011;10371;49.042;8.002;2023-08-06T00:04:46;3.60;;;3.30;;
20423;SDS011;10371;49.042;8.002;2023-08-06T00:05:46;3.45;;;3.17;;
20423;SDS011;10371;49.042;8.002;2023-08-06T00:06:46;3.15;;;2.85;;
20423;SDS011;10371;49.042;8.002;2023-08-06T00:07:47;3.10;;;2.90;;
20423;SDS011;10371;49.042;8.002;2023-08-06T00:08:48;3.25;;;2.95;;
20423;SDS011;10371;49.042;8.002;2023-08-06T00:09:48;5.35;;;2.78;;
20423;SDS011;10371;49.042;8.002;2023-08-06T00:10:48;3.55;;;2.70;;
20423;SDS011;10371;49.042;8.002;2023-08-06T00:11:49;3.05;;;2.85;;
20423;SDS011;10371;49.042;8.002;2023-08-06T00:12:49;2.90;;;2.70;;
20423;SDS011;10371;49.042;8.002;2023-08-06T00:13:49;2.95;;;2.75;;
20423;SDS011;10371;49.042;8.002;2023-08-06T00:14:50;2.78;;;2.58;;
20423;SDS011;10371;49.042;8.002;2023-08-06T00:15:51;2.80;;;2.60;;
20423;SDS011;10371;49.042;8.002;2023-08-06T00:16:51;3.03;;;2.80;;
20423;SDS011;10371;49.042;8.002;2023-08-06T00:17:52;4.32;;;3.00;;
20423;SDS011;10371;49.042;8.002;2023-08-06T00:18:52;2.97;;;2.72;;
20423;SDS011;10371;49.042;8.002;2023-08-06T00:19:52;3.35;;;3.08;;
20423;SDS011;10371;49.042;8.002;2023-08-06T00:20:52;3.47;;;3.17;;
20423;SDS011;10371;49.042;8.002;2023-08-06T00:21:53;3.40;;;3.10;;
20423;SDS011;10371;49.042;8.002;2023-08-06T00:22:53;3.25;;;3.05;;
20423;SDS011;10371;49.042;8.002;2023-08-06T00:23:53;2.88;;;2.67;;
20423;SDS011;10371;49.042;8.002;2023-08-06T00:24:53;6.97;;;3.00;;
20423;SDS011;10371;49.042;8.002;2023-08-06T00:25:57;3.10;;;2.90;;
20423;SDS011;10371;49.042;8.002;2023-08-06T00:26:57;3.05;;;2.85;;
20423;SDS011;10371;49.042;8.002;2023-08-06T00:27:57;2.80;;;2.60;;
20423;SDS011;10371;49.042;8.002;2023-08-06T00:28:58;3.85;;;3.55;;
20423;SDS011;10371;49.042;8.002;2023-08-06T00:29:58;3.28;;;3.08;;
20423;SDS011;10371;49.042;8.002;2023-08-06T00:30:59;3.00;;;2.80;;
20423;SDS011;10371;49.042;8.002;2023-08-06T00:31:59;3.30;;;2.78;;
20423;SDS011;10371;49.042;8.002;2023-08-06T00:32:59;2.83;;;2.55;;
20423;SDS011;10371;49.042;8.002;2023-08-06T00:34:00;3.08;;;2.75;;
20423;SDS011;10371;49.042;8.002;2023-08-06T00:35:00;3.28;;;2.90;;
20423;SDS011;10371;49.042;8.002;2023-08-06T00:36:00;3.10;;;2.50;;
20423;SDS011;10371;49.042;8.002;2023-08-06T00:37:00;2.85;;;2.65;;
20423;SDS011;10371;49.042;8.002;2023-08-06T00:38:01;2.88;;;2.67;;
20423;SDS011;10371;49.042;8.002;2023-08-06T00:39:01;2.83;;;2.60;;
20423;SDS011;10371;49.042;8.002;2023-08-06T00:40:02;2.80;;;2.60;;
20423;SDS011;10371;49.042;8.002;2023-08-06T00:41:02;2.53;;;2.33;;
20423;SDS011;10371;49.042;8.002;2023-08-06T00:42:02;2.42;;;2.22;;
20423;SDS011;10371;49.042;8.002;2023-08-06T00:43:03;3.17;;;2.97;;
20423;SDS011;10371;49.042;8.002;2023-08-06T00:44:03;2.97;;;2.67;;
20423;SDS011;10371;49.042;8.002;2023-08-06T00:45:04;3.00;;;2.80;;
20423;SDS011;10371;49.042;8.002;2023-08-06T00:46:04;2.80;;;2.60;;
20423;SDS011;10371;49.042;8.002;2023-08-06T00:47:05;3.15;;;2.85;;
20423;SDS011;10371;49.042;8.002;2023-08-06T00:48:07;2.72;;;2.47;;
20423;SDS011;10371;49.042;8.002;2023-08-06T00:49:07;2.83;;;2.40;;
20423;SDS011;10371;49.042;8.002;2023-08-06T00:50:08;2.75;;;2.55;;
20423;SDS011;10371;49.042;8.002;2023-08-06T00:51:09;2.80;;;2.60;;
20423;SDS011;10371;49.042;8.002;2023-08-06T00:52:10;3.17;;;2.95;;
20423;SDS011;10371;49.042;8.002;2023-08-06T00:53:13;3.28;;;2.70;;
20423;SDS011;10371;49.042;8.002;2023-08-06T00:54:14;3.13;;;2.50;;
20423;SDS011;10371;49.042;8.002;2023-08-06T00:55:15;3.53;;;2.83;;
20423;SDS011;10371;49.042;8.002;2023-08-06T00:56:15;2.90;;;2.63;;
20423;SDS011;10371;49.042;8.002;2023-08-06T00:57:15;3.42;;;2.72;;
20423;SDS011;10371;49.042;8.002;2023-08-06T00:58:16;3.20;;;2.90;;
20423;SDS011;10371;49.042;8.002;2023-08-06T00:59:17;2.60;;;2.40;;
20423;SDS011;10371;49.042;8.002;2023-08-06T01:00:17;3.38;;;2.40;;
20423;SDS011;10371;49.042;8.002;2023-08-06T01:01:19;3.00;;;2.53;;
20423;SDS011;10371;49.042;8.002;2023-08-06T01:02:19;2.60;;;2.40;;
20423;SDS011;10371;49.042;8.002;2023-08-06T01:03:20;2.97;;;2.72;;
20423;SDS011;10371;49.042;8.002;2023-08-06T01:04:20;2.75;;;2.55;;
20423;SDS011;10371;49.042;8.002;2023-08-06T01:05:20;3.13;;;2.40;;
20423;SDS011;10371;49.042;8.002;2023-08-06T01:06:33;3.05;;;2.65;;
20423;SDS011;10371;49.042;8.002;2023-08-06T01:09:33;2.45;;;2.25;;
20423;SDS011;10371;49.042;8.002;2023-08-06T01:10:54;2.60;;;2.40;;
20423;SDS011;10371;49.042;8.002;2023-08-06T01:12:06;2.80;;;2.60;;
20423;SDS011;10371;49.042;8.002;2023-08-06T01:13:22;2.60;;;2.40;;
20423;SDS011;10371;49.042;8.002;2023-08-06T01:14:28;2.90;;;2.60;;
20423;SDS011;10371;49.042;8.002;2023-08-06T01:15:35;2.47;;;2.28;;
20423;SDS011;10371;49.042;8.002;2023-08-06T01:16:43;3.10;;;2.25;;
20423;SDS011;10371;49.042;8.002;2023-08-06T01:17:44;3.80;;;2.50;;
20423;SDS011;10371;49.042;8.002;2023-08-06T01:18:46;2.83;;;2.60;;
20423;SDS011;10371;49.042;8.002;2023-08-06T01:19:49;2.50;;;2.30;;
20423;SDS011;10371;49.042;8.002;2023-08-06T01:20:49;2.97;;;2.67;;
20423;SDS011;10371;49.042;8.002;2023-08-06T01:21:52;3.17;;;2.88;;
20423;SDS011;10371;49.042;8.002;2023-08-06T01:22:52;3.35;;;2.75;;
20423;SDS011;10371;49.042;8.002;2023-08-06T01:23:53;2.50;;;2.30;;
20423;SDS011;10371;49.042;8.002;2023-08-06T01:24:53;3.17;;;2.88;;
20423;SDS011;10371;49.042;8.002;2023-08-06T01:26:15;2.67;;;2.47;;
20423;SDS011;10371;49.042;8.002;2023-08-06T01:28:59;2.90;;;2.70;;
20423;SDS011;10371;49.042;8.002;2023-08-06T01:30:17;3.03;;;2.40;;
20423;SDS011;10371;49.042;8.002;2023-08-06T01:31:24;2.30;;;2.20;;
20423;SDS011;10371;49.042;8.002;2023-08-06T01:32:27;2.78;;;2.50;;
20423;SDS011;10371;49.042;8.002;2023-08-06T01:33:32;2.80;;;2.42;;
20423;SDS011;10371;49.042;8.002;2023-08-06T01:34:34;2.67;;;2.47;;
20423;SDS011;10371;49.042;8.002;2023-08-06T01:35:35;2.85;;;2.65;;
20423;SDS011;10371;49.042;8.002;2023-08-06T01:36:38;2.83;;;2.42;;
20423;SDS011;10371;49.042;8.002;2023-08-06T01:37:38;2.90;;;2.63;;
20423;SDS011;10371;49.042;8.002;2023-08-06T01:38:40;2.92;;;2.50;;
20423;SDS011;10371;49.042;8.002;2023-08-06T01:39:42;2.85;;;2.58;;
20423;SDS011;10371;49.042;8.002;2023-08-06T01:40:43;3.42;;;3.13;;
20423;SDS011;10371;49.042;8.002;2023-08-06T01:41:43;3.15;;;2.78;;
20423;SDS011;10371;49.042;8.002;2023-08-06T01:42:43;3.05;;;2.75;;
20423;SDS011;10371;49.042;8.002;2023-08-06T01:43:43;5.53;;;2.65;;
20423;SDS011;10371;49.042;8.002;2023-08-06T01:44:44;3.05;;;2.75;;
20423;SDS011;10371;49.042;8.002;2023-08-06T01:45:44;2.75;;;2.55;;
20423;SDS011;10371;49.042;8.002;2023-08-06T01:46:44;3.45;;;2.70;;
20423;SDS011;10371;49.042;8.002;2023-08-06T01:47:45;3.55;;;2.35;;
20423;SDS011;10371;49.042;8.002;2023-08-06T01:48:45;3.13;;;2.67;;
20423;SDS011;10371;49.042;8.002;2023-08-06T01:49:45;4.32;;;2.38;;
20423;SDS011;10371;49.042;8.002;2023-08-06T01:50:45;2.60;;;2.40;;
20423;SDS011;10371;49.042;8.002;2023-08-06T01:51:46;2.75;;;2.55;;
20423;SDS011;10371;49.042;8.002;2023-08-06T01:52:46;2.63;;;2.42;;
20423;SDS011;10371;49.042;8.002;2023-08-06T01:53:46;3.30;;;2.50;;
20423;SDS011;10371;49.042;8.002;2023-08-06T01:54:46;3.10;;;2.78;;
20423;SDS011;10371;49.042;8.002;2023-08-06T01:55:47;3.13;;;2.92;;
20423;SDS011;10371;49.042;8.002;2023-08-06T01:56:50;4.15;;;2.60;;
20423;SDS011;10371;49.042;8.002;2023-08-06T01:57:51;2.80;;;2.60;;
20423;SDS011;10371;49.042;8.002;2023-08-06T01:58:51;2.92;;;2.60;;
20423;SDS011;10371;49.042;8.002;2023-08-06T01:59:51;2.80;;;2.60;;
20423;SDS011;10371;49.042;8.002;2023-08-06T02:00:51;4.05;;;2.80;;
20423;SDS011;10371;49.042;8.002;2023-08-06T02:01:52;2.85;;;2.65;;
20423;SDS011;10371;49.042;8.002;2023-08-06T02:02:52;3.50;;;3.08;;
20423;SDS011;10371;49.042;8.002;2023-08-06T02:03:52;2.78;;;2.47;;
20423;SDS011;10371;49.042;8.002;2023-08-06T02:04:53;2.20;;;2.10;;
20423;SDS011;10371;49.042;8.002;2023-08-06T02:05:53;3.05;;;2.47;;
20423;SDS011;10371;49.042;8.002;2023-08-06T02:06:53;3.75;;;2.85;;
20423;SDS011;10371;49.042;8.002;2023-08-06T02:07:54;2.78;;;2.42;;
20423;SDS011;10371;49.042;8.002;2023-08-06T02:08:54;4.47;;;2.67;;
20423;SDS011;10371;49.042;8.002;2023-08-06T02:09:54;2.92;;;2.28;;
20423;SDS011;10371;49.042;8.002;2023-08-06T02:10:54;2.75;;;2.45;;
20423;SDS011;10371;49.042;8.002;2023-08-06T02:11:55;2.75;;;2.42;;
20423;SDS011;10371;49.042;8.002;2023-08-06T02:12:55;2.47;;;2.28;;
20423;SDS011;10371;49.042;8.002;2023-08-06T02:13:55;2.92;;;2.67;;
20423;SDS011;10371;49.042;8.002;2023-08-06T02:14:55;3.92;;;2.38;;
20423;SDS011;10371;49.042;8.002;2023-08-06T02:15:56;3.28;;;2.92;;
20423;SDS011;10371;49.042;8.002;2023-08-06T02:16:56;2.78;;;2.53;;
20423;SDS011;10371;49.042;8.002;2023-08-06T02:17:56;3.22;;;2.75;;
20423;SDS011;10371;49.042;8.002;2023-08-06T02:18:56;3.05;;;2.70;;
20423;SDS011;10371;49.042;8.002;2023-08-06T02:19:57;2.40;;;2.20;;
20423;SDS011;10371;49.042;8.002;2023-08-06T02:20:57;2.53;;;2.33;;
20423;SDS011;10371;49.042;8.002;2023-08-06T02:21:58;2.60;;;2.40;;
20423;SDS011;10371;49.042;8.002;2023-08-06T02:22:59;2.65;;;2.45;;
20423;SDS011;10371;49.042;8.002;2023-08-06T02:23:59;3.65;;;2.25;;
20423;SDS011;10371;49.042;8.002;2023-08-06T02:24:59;3.17;;;2.28;;
20423;SDS011;10371;49.042;8.002;2023-08-06T02:26:00;2.83;;;2.63;;
20423;SDS011;10371;49.042;8.002;2023-08-06T02:27:01;2.60;;;2.40;;
20423;SDS011;10371;49.042;8.002;2023-08-06T02:28:02;2.78;;;2.30;;
20423;SDS011;10371;49.042;8.002;2023-08-06T02:29:02;2.40;;;2.20;;
20423;SDS011;10371;49.042;8.002;2023-08-06T02:30:02;2.72;;;2.50;;
20423;SDS011;10371;49.042;8.002;2023-08-06T02:31:04;3.30;;;2.15;;
20423;SDS011;10371;49.042;8.002;2023-08-06T02:32:06;3.67;;;2.30;;
20423;SDS011;10371;49.042;8.002;2023-08-06T02:33:07;4.65;;;2.60;;
20423;SDS011;10371;49.042;8.002;2023-08-06T02:34:07;2.60;;;2.38;;
20423;SDS011;10371;49.042;8.002;2023-08-06T02:35:08;2.50;;;2.30;;
20423;SDS011;10371;49.042;8.002;2023-08-06T02:36:08;3.35;;;2.22;;
20423;SDS011;10371;49.042;8.002;2023-08-06T02:37:08;2.40;;;2.20;;
20423;SDS011;10371;49.042;8.002;2023-08-06T02:38:09;2.30;;;2.20;;
20423;SDS011;10371;49.042;8.002;2023-08-06T02:39:09;2.40;;;2.20;;
20423;SDS011;10371;49.042;8.002;2023-08-06T02:40:09;2.30;;;2.10;;
20423;SDS011;10371;49.042;8.002;2023-08-06T02:41:10;4.80;;;2.58;;
20423;SDS011;10371;49.042;8.002;2023-08-06T02:42:10;2.38;;;2.17;;
20423;SDS011;10371;49.042;8.002;2023-08-06T02:43:10;2.80;;;2.05;;
20423;SDS011;10371;49.042;8.002;2023-08-06T02:44:11;2.45;;;2.17;;
20423;SDS011;10371;49.042;8.002;2023-08-06T02:45:11;2.67;;;1.90;;
20423;SDS011;10371;49.042;8.002;2023-08-06T02:46:12;2.35;;;2.00;;
20423;SDS011;10371;49.042;8.002;2023-08-06T02:47:12;2.28;;;2.00;;
20423;SDS011;10371;49.042;8.002;2023-08-06T02:48:12;3.08;;;1.90;;
20423;SDS011;10371;49.042;8.002;2023-08-06T02:49:12;4.00;;;1.80;;
20423;SDS011;10371;49.042;8.002;2023-08-06T02:50:13;2.95;;;1.98;;
20423;SDS011;10371;49.042;8.002;2023-08-06T02:51:13;3.25;;;1.92;;
20423;SDS011;10371;49.042;8.002;2023-08-06T02:52:13;3.65;;;2.05;;
20423;SDS011;10371;49.042;8.002;2023-08-06T02:53:13;2.67;;;1.73;;
20423;SDS011;10371;49.042;8.002;2023-08-06T02:54:14;1.60;;;1.50;;
20423;SDS011;10371;49.042;8.002;2023-08-06T02:55:14;1.60;;;1.50;;
20423;SDS011;10371;49.042;8.002;2023-08-06T02:56:14;2.97;;;1.67;;
20423;SDS011;10371;49.042;8.002;2023-08-06T02:57:15;1.77;;;1.50;;
20423;SDS011;10371;49.042;8.002;2023-08-06T02:58:15;3.95;;;1.70;;
20423;SDS011;10371;49.042;8.002;2023-08-06T02:59:16;2.75;;;1.60;;
20423;SDS011;10371;49.042;8.002;2023-08-06T03:00:16;3.55;;;1.50;;
20423;SDS011;10371;49.042;8.002;2023-08-06T03:01:16;2.55;;;1.55;;
20423;SDS011;10371;49.042;8.002;2023-08-06T03:02:17;2.95;;;1.50;;
20423;SDS011;10371;49.042;8.002;2023-08-06T03:03:17;2.47;;;1.50;;
20423;SDS011;10371;49.042;8.002;2023-08-06T03:04:17;2.60;;;1.50;;
20423;SDS011;10371;49.042;8.002;2023-08-06T03:05:18;2.17;;;1.40;;
20423;SDS011;10371;49.042;8.002;2023-08-06T03:06:18;1.98;;;1.27;;
20423;SDS011;10371;49.042;8.002;2023-08-06T03:07:18;2.38;;;1.60;;
20423;SDS011;10371;49.042;8.002;2023-08-06T03:08:19;2.63;;;1.73;;
20423;SDS011;10371;49.042;8.002;2023-08-06T03:09:22;3.63;;;1.60;;
20423;SDS011;10371;49.042;8.002;2023-08-06T03:10:22;3.80;;;1.40;;
20423;SDS011;10371;49.042;8.002;2023-08-06T03:11:22;2.22;;;1.33;;
20423;SDS011;10371;49.042;8.002;2023-08-06T03:12:23;3.00;;;1.27;;
20423;SDS011;10371;49.042;8.002;2023-08-06T03:13:23;2.08;;;1.30;;
20423;SDS011;10371;49.042;8.002;2023-08-06T03:14:23;3.45;;;1.30;;
20423;SDS011;10371;49.042;8.002;2023-08-06T03:15:24;2.40;;;1.30;;
20423;SDS011;10371;49.042;8.002;2023-08-06T03:16:24;4.72;;;1.50;;
20423;SDS011;10371;49.042;8.002;2023-08-06T03:17:24;3.63;;;1.40;;
20423;SDS011;10371;49.042;8.002;2023-08-06T03:18:25;3.03;;;1.27;;
20423;SDS011;10371;49.042;8.002;2023-08-06T03:19:28;3.47;;;1.40;;
20423;SDS011;10371;49.042;8.002;2023-08-06T03:20:28;1.60;;;1.27;;
20423;SDS011;10371;49.042;8.002;2023-08-06T03:21:29;3.10;;;1.45;;
20423;SDS011;10371;49.042;8.002;2023-08-06T03:22:29;5.10;;;1.73;;
20423;SDS011;10371;49.042;8.002;2023-08-06T03:23:29;1.55;;;1.33;;
20423;SDS011;10371;49.042;8.002;2023-08-06T03:24:29;2.13;;;1.20;;
20423;SDS011;10371;49.042;8.002;2023-08-06T03:25:30;3.47;;;1.50;;
20423;SDS011;10371;49.042;8.002;2023-08-06T03:26:30;3.47;;;1.40;;
20423;SDS011;10371;49.042;8.002;2023-08-06T03:27:30;2.40;;;1.52;;
20423;SDS011;10371;49.042;8.002;2023-08-06T03:28:30;4.75;;;1.40;;
20423;SDS011;10371;49.042;8.002;2023-08-06T03:29:31;1.70;;;1.35;;
20423;SDS011;10371;49.042;8.002;2023-08-06T03:30:31;2.75;;;1.40;;
20423;SDS011;10371;49.042;8.002;2023-08-06T03:31:31;2.83;;;1.77;;
20423;SDS011;10371;49.042;8.002;2023-08-06T03:32:32;1.63;;;1.45;;
20423;SDS011;10371;49.042;8.002;2023-08-06T03:33:32;2.70;;;1.77;;
20423;SDS011;10371;49.042;8.002;2023-08-06T03:34:32;2.35;;;1.40;;
20423;SDS011;10371;49.042;8.002;2023-08-06T03:35:32;1.40;;;1.30;;
20423;SDS011;10371;49.042;8.002;2023-08-06T03:36:33;3.53;;;1.45;;
20423;SDS011;10371;49.042;8.002;2023-08-06T03:37:33;1.98;;;1.40;;
20423;SDS011;10371;49.042;8.002;2023-08-06T03:38:33;2.30;;;1.50;;
20423;SDS011;10371;49.042;8.002;2023-08-06T03:39:34;2.63;;;1.50;;
20423;SDS011;10371;49.042;8.002;2023-08-06T03:40:34;3.28;;;1.50;;
20423;SDS011;10371;49.042;8.002;2023-08-06T03:41:36;4.32;;;1.58;;
20423;SDS011;10371;49.042;8.002;2023-08-06T03:42:36;1.80;;;1.27;;
20423;SDS011;10371;49.042;8.002;2023-08-06T03:43:36;2.05;;;1.42;;
20423;SDS011;10371;49.042;8.002;2023-08-06T03:44:36;3.00;;;1.52;;
20423;SDS011;10371;49.042;8.002;2023-08-06T03:45:37;2.25;;;1.45;;
20423;SDS011;10371;49.042;8.002;2023-08-06T03:46:37;3.08;;;1.80;;
20423;SDS011;10371;49.042;8.002;2023-08-06T03:47:38;4.32;;;1.60;;
20423;SDS011;10371;49.042;8.002;2023-08-06T03:48:38;3.22;;;1.60;;
20423;SDS011;10371;49.042;8.002;2023-08-06T03:49:38;3.40;;;1.42;;
20423;SDS011;10371;49.042;8.002;2023-08-06T03:50:38;4.00;;;1.42;;
20423;SDS011;10371;49.042;8.002;2023-08-06T03:51:39;3.28;;;1.35;;
20423;SDS011;10371;49.042;8.002;2023-08-06T03:52:39;3.00;;;1.70;;
20423;SDS011;10371;49.042;8.002;2023-08-06T03:53:39;4.15;;;1.45;;
20423;SDS011;10371;49.042;8.002;2023-08-06T03:54:40;2.63;;;1.33;;
20423;SDS011;10371;49.042;8.002;2023-08-06T03:55:40;3.17;;;1.58;;
20423;SDS011;10371;49.042;8.002;2023-08-06T03:56:41;3.72;;;1.45;;
20423;SDS011;10371;49.042;8.002;2023-08-06T03:57:41;1.40;;;1.30;;
20423;SDS011;10371;49.042;8.002;2023-08-06T03:58:41;2.92;;;1.63;;
20423;SDS011;10371;49.042;8.002;2023-08-06T03:59:42;4.07;;;1.45;;
20423;SDS011;10371;49.042;8.002;2023-08-06T04:00:42;3.10;;;1.30;;
20423;SDS011;10371;49.042;8.002;2023-08-06T04:01:42;3.25;;;1.60;;
20423;SDS011;10371;49.042;8.002;2023-08-06T04:02:42;3.38;;;1.30;;
20423;SDS011;10371;49.042;8.002;2023-08-06T04:03:43;2.58;;;1.73;;
20423;SDS011;10371;49.042;8.002;2023-08-06T04:04:43;3.05;;;1.35;;
20423;SDS011;10371;49.042;8.002;2023-08-06T04:05:43;2.22;;;1.70;;
20423;SDS011;10371;49.042;8.002;2023-08-06T04:06:44;2.28;;;1.40;;
20423;SDS011;10371;49.042;8.002;2023-08-06T04:07:44;2.88;;;1.33;;
20423;SDS011;10371;49.042;8.002;2023-08-06T04:08:44;4.05;;;1.55;;
20423;SDS011;10371;49.042;8.002;2023-08-06T04:09:52;2.88;;;1.63;;
20423;SDS011;10371;49.042;8.002;2023-08-06T04:10:57;3.63;;;1.50;;
20423;SDS011;10371;49.042;8.002;2023-08-06T04:11:58;1.63;;;1.20;;
20423;SDS011;10371;49.042;8.002;2023-08-06T04:12:58;3.40;;;1.25;;
20423;SDS011;10371;49.042;8.002;2023-08-06T04:13:59;1.15;;;1.05;;
20423;SDS011;10371;49.042;8.002;2023-08-06T04:15:00;2.42;;;1.40;;
20423;SDS011;10371;49.042;8.002;2023-08-06T04:16:01;3.85;;;1.35;;
20423;SDS011;10371;49.042;8.002;2023-08-06T04:17:02;2.47;;;1.17;;
20423;SDS011;10371;49.042;8.002;2023-08-06T04:18:03;2.83;;;1.50;;
20423;SDS011;10371;49.042;8.002;2023-08-06T04:19:03;3.22;;;2.05;;
20423;SDS011;10371;49.042;8.002;2023-08-06T04:20:03;2.30;;;1.05;;
20423;SDS011;10371;49.042;8.002;2023-08-06T04:21:04;5.10;;;1.40;;
20423;SDS011;10371;49.042;8.002;2023-08-06T04:22:05;2.28;;;1.25;;
20423;SDS011;10371;49.042;8.002;2023-08-06T04:23:08;2.58;;;1.40;;
20423;SDS011;10371;49.042;8.002;2023-08-06T04:24:08;2.97;;;1.50;;
20423;SDS011;10371;49.042;8.002;2023-08-06T04:25:09;4.25;;;1.50;;
20423;SDS011;10371;49.042;8.002;2023-08-06T04:26:09;2.63;;;1.35;;
20423;SDS011;10371;49.042;8.002;2023-08-06T04:27:10;1.58;;;1.25;;
20423;SDS011;10371;49.042;8.002;2023-08-06T04:28:11;2.40;;;1.40;;
20423;SDS011;10371;49.042;8.002;2023-08-06T04:29:11;1.38;;;1.10;;
20423;SDS011;10371;49.042;8.002;2023-08-06T04:30:11;4.93;;;1.40;;
20423;SDS011;10371;49.042;8.002;2023-08-06T04:31:12;1.38;;;1.10;;
20423;SDS011;10371;49.042;8.002;2023-08-06T04:32:13;1.30;;;1.20;;
20423;SDS011;10371;49.042;8.002;2023-08-06T04:33:13;3.22;;;1.48;;
20423;SDS011;10371;49.042;8.002;2023-08-06T04:34:14;2.28;;;1.23;;
20423;SDS011;10371;49.042;8.002;2023-08-06T04:35:14;3.03;;;1.48;;
20423;SDS011;10371;49.042;8.002;2023-08-06T04:36:15;3.30;;;1.52;;
20423;SDS011;10371;49.042;8.002;2023-08-06T04:37:15;4.38;;;1.58;;
20423;SDS011;10371;49.042;8.002;2023-08-06T04:38:15;2.50;;;1.30;;
20423;SDS011;10371;49.042;8.002;2023-08-06T04:39:15;4.13;;;1.20;;
20423;SDS011;10371;49.042;8.002;2023-08-06T04:40:16;3.70;;;1.38;;
20423;SDS011;10371;49.042;8.002;2023-08-06T04:41:16;1.38;;;1.13;;
20423;SDS011;10371;49.042;8.002;2023-08-06T04:42:16;1.25;;;1.10;;
20423;SDS011;10371;49.042;8.002;2023-08-06T04:43:17;1.48;;;1.20;;
20423;SDS011;10371;49.042;8.002;2023-08-06T04:44:17;3.70;;;1.30;;
20423;SDS011;10371;49.042;8.002;2023-08-06T04:45:17;1.35;;;1.20;;
20423;SDS011;10371;49.042;8.002;2023-08-06T04:46:18;3.83;;;1.17;;
20423;SDS011;10371;49.042;8.002;2023-08-06T04:47:18;2.92;;;1.20;;
20423;SDS011;10371;49.042;8.002;2023-08-06T04:48:18;1.67;;;1.02;;
20423;SDS011;10371;49.042;8.002;2023-08-06T04:49:22;3.00;;;1.42;;
20423;SDS011;10371;49.042;8.002;2023-08-06T04:50:22;1.92;;;1.33;;
20423;SDS011;10371;49.042;8.002;2023-08-06T04:51:22;2.15;;;1.25;;
20423;SDS011;10371;49.042;8.002;2023-08-06T04:52:23;1.98;;;1.17;;
20423;SDS011;10371;49.042;8.002;2023-08-06T04:53:23;2.42;;;1.20;;
20423;SDS011;10371;49.042;8.002;2023-08-06T04:54:23;1.88;;;1.23;;
20423;SDS011;10371;49.042;8.002;2023-08-06T04:55:23;1.83;;;1.15;;
20423;SDS011;10371;49.042;8.002;2023-08-06T04:56:24;2.10;;;1.20;;
20423;SDS011;10371;49.042;8.002;2023-08-06T04:57:24;2.95;;;1.20;;
20423;SDS011;10371;49.042;8.002;2023-08-06T04:58:24;2.47;;;1.30;;
20423;SDS011;10371;49.042;8.002;2023-08-06T04:59:24;2.40;;;1.08;;
20423;SDS011;10371;49.042;8.002;2023-08-06T05:00:25;1.75;;;1.15;;
20423;SDS011;10371;49.042;8.002;2023-08-06T05:01:25;2.13;;;1.08;;
20423;SDS011;10371;49.042;8.002;2023-08-06T05:02:25;2.47;;;1.17;;
20423;SDS011;10371;49.042;8.002;2023-08-06T05:03:26;1.35;;;0.73;;
20423;SDS011;10371;49.042;8.002;2023-08-06T05:04:26;1.80;;;0.95;;
20423;SDS011;10371;49.042;8.002;2023-08-06T05:05:27;2.42;;;1.30;;
20423;SDS011;10371;49.042;8.002;2023-08-06T05:06:28;2.08;;;1.05;;
20423;SDS011;10371;49.042;8.002;2023-08-06T05:07:28;1.27;;;0.80;;
20423;SDS011;10371;49.042;8.002;2023-08-06T05:08:29;2.08;;;0.90;;
20423;SDS011;10371;49.042;8.002;2023-08-06T05:09:29;1.75;;;0.85;;
20423;SDS011;10371;49.042;8.002;2023-08-06T05:10:29;1.45;;;1.05;;
20423;SDS011;10371;49.042;8.002;2023-08-06T05:11:29;2.08;;;0.90;;
20423;SDS011;10371;49.042;8.002;2023-08-06T05:12:30;2.65;;;1.10;;
20423;SDS011;10371;49.042;8.002;2023-08-06T05:13:30;1.65;;;0.85;;
20423;SDS011;10371;49.042;8.002;2023-08-06T05:14:30;2.95;;;0.88;;
20423;SDS011;10371;49.042;8.002;2023-08-06T05:15:30;1.90;;;0.90;;
20423;SDS011;10371;49.042;8.002;2023-08-06T05:16:31;1.55;;;1.00;;
20423;SDS011;10371;49.042;8.002;2023-08-06T05:17:31;1.42;;;0.80;;
20423;SDS011;10371;49.042;8.002;2023-08-06T05:18:31;0.60;;;0.52;;
20423;SDS011;10371;49.042;8.002;2023-08-06T05:19:34;1.13;;;1.02;;
20423;SDS011;10371;49.042;8.002;2023-08-06T05:20:37;0.90;;;0.80;;
20423;SDS011;10371;49.042;8.002;2023-08-06T05:21:38;2.38;;;0.98;;
20423;SDS011;10371;49.042;8.002;2023-08-06T05:22:38;1.10;;;0.90;;
20423;SDS011;10371;49.042;8.002;2023-08-06T05:23:39;1.38;;;0.80;;
20423;SDS011;10371;49.042;8.002;2023-08-06T05:24:39;0.80;;;0.80;;
20423;SDS011;10371;49.042;8.002;2023-08-06T05:25:39;1.10;;;0.75;;
20423;SDS011;10371;49.042;8.002;2023-08-06T05:26:40;1.75;;;0.90;;
20423;SDS011;10371;49.042;8.002;2023-08-06T05:27:40;0.50;;;0.50;;
20423;SDS011;10371;49.042;8.002;2023-08-06T05:28:40;1.45;;;0.75;;
20423;SDS011;10371;49.042;8.002;2023-08-06T05:29:41;1.42;;;1.00;;
20423;SDS011;10371;49.042;8.002;2023-08-06T05:30:41;1.02;;;0.70;;
20423;SDS011;10371;49.042;8.002;2023-08-06T05:31:41;0.95;;;0.60;;
20423;SDS011;10371;49.042;8.002;2023-08-06T05:32:42;0.90;;;0.75;;
20423;SDS011;10371;49.042;8.002;2023-08-06T05:33:42;2.20;;;1.13;;
20423;SDS011;10371;49.042;8.002;2023-08-06T05:34:42;1.10;;;1.00;;
20423;SDS011;10371;49.042;8.002;2023-08-06T05:35:43;1.17;;;0.82;;
20423;SDS011;10371;49.042;8.002;2023-08-06T05:36:43;1.58;;;1.05;;
20423;SDS011;10371;49.042;8.002;2023-08-06T05:37:43;1.38;;;0.70;;
20423;SDS011;10371;49.042;8.002;2023-08-06T05:38:43;0.75;;;0.70;;
20423;SDS011;10371;49.042;8.002;2023-08-06T05:39:43;1.25;;;0.60;;
20423;SDS011;10371;49.042;8.002;2023-08-06T05:40:44;1.98;;;0.70;;
20423;SDS011;10371;49.042;8.002;2023-08-06T05:41:44;1.02;;;0.60;;
20423;SDS011;10371;49.042;8.002;2023-08-06T05:42:44;0.70;;;0.60;;
20423;SDS011;10371;49.042;8.002;2023-08-06T05:43:45;1.23;;;0.80;;
20423;SDS011;10371;49.042;8.002;2023-08-06T05:44:45;1.00;;;0.80;;
20423;SDS011;10371;49.042;8.002;2023-08-06T05:45:45;0.80;;;0.70;;
20423;SDS011;10371;49.042;8.002;2023-08-06T05:46:49;0.73;;;0.55;;
20423;SDS011;10371;49.042;8.002;2023-08-06T05:47:49;1.65;;;0.40;;
20423;SDS011;10371;49.042;8.002;2023-08-06T05:48:49;1.35;;;0.75;;
20423;SDS011;10371;49.042;8.002;2023-08-06T05:49:51;0.80;;;0.70;;
20423;SDS011;10371;49.042;8.002;2023-08-06T05:50:51;0.82;;;0.57;;
20423;SDS011;10371;49.042;8.002;2023-08-06T05:51:52;0.70;;;0.70;;
20423;SDS011;10371;49.042;8.002;2023-08-06T05:52:53;0.70;;;0.60;;
20423;SDS011;10371;49.042;8.002;2023-08-06T05:53:53;0.82;;;0.57;;
20423;SDS011;10371;49.042;8.002;2023-08-06T05:54:53;1.38;;;0.60;;
20423;SDS011;10371;49.042;8.002;2023-08-06T05:55:55;2.50;;;0.80;;
20423;SDS011;10371;49.042;8.002;2023-08-06T05:56:56;1.15;;;0.52;;
20423;SDS011;10371;49.042;8.002;2023-08-06T05:57:56;1.15;;;0.80;;
20423;SDS011;10371;49.042;8.002;2023-08-06T05:58:56;0.63;;;0.50;;
20423;SDS011;10371;49.042;8.002;2023-08-06T05:59:56;0.52;;;0.52;;
20423;SDS011;10371;49.042;8.002;2023-08-06T06:00:57;0.35;;;0.35;;
20423;SDS011;10371;49.042;8.002;2023-08-06T06:01:57;0.40;;;0.40;;
20423;SDS011;10371;49.042;8.002;2023-08-06T06:02:57;0.95;;;0.43;;
20423;SDS011;10371;49.042;8.002;2023-08-06T06:03:58;1.10;;;0.65;;
20423;SDS011;10371;49.042;8.002;2023-08-06T06:04:58;2.75;;;0.60;;
20423;SDS011;10371;49.042;8.002;2023-08-06T06:05:59;0.32;;;0.32;;
20423;SDS011;10371;49.042;8.002;2023-08-06T06:07:01;1.38;;;0.45;;
20423;SDS011;10371;49.042;8.002;2023-08-06T06:08:01;0.63;;;0.60;;
20423;SDS011;10371;49.042;8.002;2023-08-06T06:09:02;1.02;;;0.65;;
20423;SDS011;10371;49.042;8.002;2023-08-06T06:10:02;0.50;;;0.38;;
20423;SDS011;10371;49.042;8.002;2023-08-06T06:11:03;0.40;;;0.38;;